createdAt,value
2023-05-09T00:00:06.250Z,8.10
2023-05-09T00:02:34.641Z,8.23
2023-05-09T00:05:02.642Z,8.10
2023-05-09T00:07:29.709Z,8.37
2023-05-09T00:09:56.485Z,7.57
2023-05-09T00:12:23.666Z,7.90
2023-05-09T00:14:51.743Z,8.90
2023-05-09T00:17:18.849Z,7.97
2023-05-09T00:19:45.596Z,8.00
2023-05-09T00:22:13.258Z,6.60
2023-05-09T00:24:40.473Z,7.33
2023-05-09T00:27:07.378Z,7.83
2023-05-09T00:29:34.241Z,7.63
2023-05-09T00:32:01.034Z,7.93
2023-05-09T00:34:27.739Z,7.37
2023-05-09T00:36:54.491Z,6.77
2023-05-09T00:39:21.428Z,7.40
2023-05-09T00:41:48.188Z,7.27
2023-05-09T00:44:15.044Z,7.60
2023-05-09T00:46:41.951Z,7.77
2023-05-09T00:49:08.769Z,7.17
2023-05-09T00:51:37.425Z,7.30
2023-05-09T00:54:04.931Z,7.83
2023-05-09T00:56:32.722Z,6.50
2023-05-09T00:59:00.162Z,7.53
2023-05-09T01:01:27.098Z,8.10
2023-05-09T01:03:54.584Z,8.67
2023-05-09T01:06:52.219Z,7.53
2023-05-09T01:09:47.660Z,8.13
2023-05-09T01:12:33.894Z,8.33
2023-05-09T01:15:23.595Z,7.90
2023-05-09T01:17:59.880Z,7.40
2023-05-09T01:20:56.697Z,7.90
2023-05-09T01:23:45.084Z,8.30
2023-05-09T01:26:17.869Z,7.20
2023-05-09T01:28:56.575Z,8.47
2023-05-09T01:31:24.734Z,8.10
2023-05-09T01:33:58.083Z,7.77
2023-05-09T01:36:29.588Z,8.80
2023-05-09T01:38:58.244Z,8.47
2023-05-09T01:41:26.856Z,9.30
2023-05-09T01:43:57.425Z,9.00
2023-05-09T01:46:27.166Z,9.60
2023-05-09T01:48:56.008Z,9.93
2023-05-09T01:51:24.262Z,9.87
2023-05-09T01:53:52.553Z,10.30
2023-05-09T01:56:21.585Z,9.00
2023-05-09T01:58:50.123Z,10.90
2023-05-09T02:01:18.672Z,9.50
2023-05-09T02:03:50.713Z,9.10
2023-05-09T02:06:20.831Z,9.40
2023-05-09T02:08:48.305Z,11.17
2023-05-09T02:11:15.115Z,11.80
2023-05-09T02:13:41.912Z,8.73
2023-05-09T02:16:10.312Z,10.30
2023-05-09T02:18:37.293Z,10.10
2023-05-09T02:21:04.589Z,9.97
2023-05-09T02:23:31.805Z,10.30
2023-05-09T02:25:58.732Z,10.70
2023-05-09T02:28:27.295Z,10.70
2023-05-09T02:30:57.098Z,11.40
2023-05-09T02:33:24.379Z,10.40
2023-05-09T02:35:52.415Z,10.50
2023-05-09T02:38:19.448Z,10.53
2023-05-09T02:40:47.750Z,11.70
2023-05-09T02:43:15.286Z,11.43
2023-05-09T02:45:42.298Z,11.60
2023-05-09T02:48:09.585Z,10.90
2023-05-09T02:50:38.288Z,11.03
2023-05-09T02:53:05.594Z,11.00
2023-05-09T02:55:32.343Z,12.20
2023-05-09T02:58:12.156Z,10.20
2023-05-09T03:00:40.073Z,11.73
2023-05-09T03:03:07.014Z,10.07
2023-05-09T03:05:34.057Z,10.60
2023-05-09T03:08:00.792Z,10.53
2023-05-09T03:10:27.515Z,11.20
2023-05-09T03:12:54.291Z,12.30
2023-05-09T03:15:21.466Z,11.93
2023-05-09T03:17:48.480Z,11.00
2023-05-09T03:20:15.768Z,13.00
2023-05-09T03:22:42.721Z,12.60
2023-05-09T03:25:10.256Z,13.50
2023-05-09T03:27:37.038Z,15.80
2023-05-09T03:30:04.164Z,12.20
2023-05-09T03:32:31.193Z,13.30
2023-05-09T03:34:57.994Z,13.17
2023-05-09T03:37:26.937Z,13.20
2023-05-09T03:39:54.046Z,12.40
2023-05-09T03:42:21.432Z,12.60
2023-05-09T03:44:48.694Z,11.00
2023-05-09T03:57:00.758Z,12.53
2023-05-09T03:59:27.530Z,13.00
2023-05-09T04:01:54.322Z,12.90
2023-05-09T04:04:21.208Z,12.40
2023-05-09T04:06:48.055Z,14.63
2023-05-09T04:09:14.949Z,15.90
2023-05-09T04:11:41.710Z,13.80
2023-05-09T04:14:08.468Z,13.67
2023-05-09T04:16:35.238Z,13.30
2023-05-09T04:19:02.615Z,13.90
2023-05-09T04:21:29.351Z,14.30
2023-05-09T04:23:56.630Z,11.83
2023-05-09T04:26:24.744Z,13.40
2023-05-09T04:28:52.838Z,12.47
2023-05-09T04:31:19.756Z,14.77
2023-05-09T04:33:46.638Z,14.13
2023-05-09T04:36:13.457Z,13.83
2023-05-09T04:38:40.668Z,16.37
2023-05-09T04:41:07.457Z,13.33
2023-05-09T04:43:34.299Z,16.57
2023-05-09T04:46:01.338Z,13.33
2023-05-09T04:48:28.135Z,15.30
2023-05-09T04:50:55.079Z,13.93
2023-05-09T04:53:21.884Z,14.70
2023-05-09T04:55:48.648Z,15.67
2023-05-09T04:58:15.500Z,15.63
2023-05-09T05:00:42.276Z,14.90
2023-05-09T05:03:09.220Z,14.60
2023-05-09T05:05:37.440Z,15.40
2023-05-09T05:08:04.962Z,17.70
2023-05-09T05:10:31.683Z,16.80
2023-05-09T05:12:58.458Z,15.67
2023-05-09T05:15:26.699Z,15.80
2023-05-09T05:17:53.725Z,15.43
2023-05-09T05:20:21.195Z,16.00
2023-05-09T05:22:48.058Z,15.50
2023-05-09T05:25:15.193Z,16.10
2023-05-09T05:27:44.182Z,15.63
2023-05-09T05:30:11.587Z,14.70
2023-05-09T05:32:38.363Z,15.43
2023-05-09T05:35:05.541Z,15.40
2023-05-09T05:37:32.315Z,15.73
2023-05-09T05:39:59.177Z,16.50
2023-05-09T05:42:25.959Z,15.70
2023-05-09T05:44:52.744Z,16.10
2023-05-09T05:47:19.479Z,16.93
2023-05-09T05:49:46.727Z,16.50
2023-05-09T05:52:13.416Z,15.60
2023-05-09T05:54:40.337Z,16.90
2023-05-09T05:57:08.145Z,15.80
2023-05-09T05:59:34.991Z,15.57
2023-05-09T06:02:01.756Z,15.07
2023-05-09T06:04:29.050Z,16.10
2023-05-09T06:06:55.953Z,14.57
2023-05-09T06:09:22.745Z,14.90
2023-05-09T06:11:49.525Z,16.20
2023-05-09T06:14:16.241Z,14.00
2023-05-09T06:16:42.997Z,14.27
2023-05-09T06:19:09.848Z,13.50
2023-05-09T06:21:36.633Z,13.33
2023-05-09T06:24:10.215Z,16.23
2023-05-09T06:26:41.339Z,14.70
2023-05-09T06:29:08.313Z,16.90
2023-05-09T06:31:39.113Z,14.50
2023-05-09T06:34:06.490Z,15.40
2023-05-09T06:36:33.888Z,15.50
2023-05-09T06:39:01.074Z,15.07
2023-05-09T06:41:27.894Z,14.10
2023-05-09T06:43:54.736Z,14.10
2023-05-09T06:46:21.680Z,14.30
2023-05-09T06:48:48.550Z,14.53
2023-05-09T06:51:15.587Z,13.47
2023-05-09T06:53:42.339Z,13.17
2023-05-09T06:56:09.125Z,14.07
2023-05-09T06:58:36.356Z,12.90
2023-05-09T07:01:04.467Z,14.80
2023-05-09T07:03:31.296Z,13.60
2023-05-09T07:05:59.010Z,13.37
2023-05-09T07:08:26.692Z,12.30
2023-05-09T07:10:53.492Z,13.13
2023-05-09T07:13:20.432Z,16.97
2023-05-09T07:15:47.350Z,12.20
2023-05-09T07:18:14.136Z,12.77
2023-05-09T07:20:41.198Z,11.60
2023-05-09T07:23:08.040Z,12.30
2023-05-09T07:25:34.895Z,12.67
2023-05-09T07:28:01.686Z,13.63
2023-05-09T07:30:28.456Z,11.40
2023-05-09T07:32:55.221Z,12.00
2023-05-09T07:35:22.300Z,12.43
2023-05-09T07:37:49.187Z,12.20
2023-05-09T07:40:16.544Z,10.27
2023-05-09T07:42:49.528Z,10.50
2023-05-09T07:45:17.079Z,13.00
2023-05-09T07:47:44.390Z,12.20
2023-05-09T07:50:11.364Z,10.87
2023-05-09T07:52:38.188Z,9.70
2023-05-09T07:55:05.339Z,10.70
2023-05-09T07:57:32.179Z,10.50
2023-05-09T07:59:58.974Z,11.10
2023-05-09T08:02:26.015Z,10.50
2023-05-09T08:04:52.805Z,11.80
2023-05-09T08:07:19.551Z,8.90
2023-05-09T08:09:46.291Z,10.50
2023-05-09T08:12:13.101Z,10.53
2023-05-09T08:14:39.861Z,8.83
2023-05-09T08:17:06.607Z,9.20
2023-05-09T08:19:33.348Z,8.73
2023-05-09T08:22:00.709Z,9.80
2023-05-09T08:24:27.456Z,8.63
2023-05-09T08:26:54.249Z,10.07
2023-05-09T08:29:21.092Z,9.60
2023-05-09T08:31:48.003Z,10.37
2023-05-09T08:34:14.806Z,9.87
2023-05-09T08:36:41.715Z,9.30
2023-05-09T08:39:09.689Z,9.30
2023-05-09T08:41:37.016Z,9.20
2023-05-09T08:44:04.675Z,9.47
2023-05-09T08:46:38.966Z,9.77
2023-05-09T08:49:09.475Z,8.40
2023-05-09T08:51:36.670Z,7.60
2023-05-09T08:54:03.968Z,7.23
2023-05-09T08:56:31.747Z,8.20
2023-05-09T08:58:59.132Z,8.13
2023-05-09T09:01:26.975Z,6.67
2023-05-09T09:03:54.221Z,6.47
2023-05-09T09:06:22.107Z,6.37
2023-05-09T09:08:50.520Z,5.73
2023-05-09T09:11:18.644Z,6.40
2023-05-09T09:13:45.963Z,6.70
2023-05-09T09:16:22.077Z,6.30
2023-05-09T09:18:52.786Z,5.93
2023-05-09T09:21:21.086Z,6.63
2023-05-09T09:23:48.972Z,6.10
2023-05-09T09:26:16.185Z,6.63
2023-05-09T09:28:43.377Z,5.93
2023-05-09T09:31:25.493Z,5.13
2023-05-09T09:33:52.426Z,5.63
2023-05-09T09:36:36.731Z,5.90
2023-05-09T09:39:04.919Z,5.20
2023-05-09T09:41:36.289Z,5.77
2023-05-09T09:44:09.797Z,5.50
2023-05-09T09:46:47.084Z,4.87
2023-05-09T09:49:15.495Z,4.73
2023-05-09T09:51:42.849Z,4.53
2023-05-09T09:54:11.551Z,4.30
2023-05-09T09:56:42.835Z,4.53
2023-05-09T09:59:12.079Z,4.90
2023-05-09T10:02:01.560Z,4.50
2023-05-09T10:04:32.502Z,3.97
2023-05-09T10:07:02.377Z,4.00
2023-05-09T10:09:29.585Z,3.97
2023-05-09T10:11:57.515Z,4.50
2023-05-09T10:14:26.666Z,3.90
2023-05-09T10:16:57.528Z,3.67
2023-05-09T10:19:27.197Z,4.00
2023-05-09T10:21:55.056Z,3.93
2023-05-09T10:24:28.976Z,3.77
2023-05-09T10:27:06.293Z,3.90
2023-05-09T10:29:44.801Z,4.10
2023-05-09T10:32:40.355Z,3.30
2023-05-09T10:35:10.502Z,3.90
2023-05-09T10:37:37.693Z,2.83
2023-05-09T10:40:05.417Z,3.07
2023-05-09T10:42:32.628Z,2.67
2023-05-09T10:44:59.539Z,3.97
2023-05-09T10:47:28.002Z,3.70
2023-05-09T10:49:55.183Z,3.33
2023-05-09T10:52:22.821Z,3.20
2023-05-09T10:55:04.273Z,3.77
2023-05-09T10:57:32.161Z,2.47
2023-05-09T11:00:00.323Z,3.27
2023-05-09T11:02:31.044Z,3.20
2023-05-09T11:05:13.944Z,3.83
2023-05-09T11:07:41.109Z,2.93
2023-05-09T11:10:10.632Z,3.07
2023-05-09T11:12:59.406Z,3.30
2023-05-09T11:15:27.717Z,2.90
2023-05-09T11:18:09.335Z,3.03
2023-05-09T11:20:42.388Z,3.00
2023-05-09T11:23:11.813Z,2.90
2023-05-09T11:25:42.463Z,2.80
2023-05-09T11:28:09.866Z,2.53
2023-05-09T11:30:43.734Z,3.17
2023-05-09T11:33:24.165Z,2.70
2023-05-09T11:36:39.097Z,2.80
2023-05-09T11:39:09.878Z,2.87
2023-05-09T11:41:45.954Z,3.00
2023-05-09T11:44:20.842Z,5.10
2023-05-09T11:46:48.896Z,2.60
2023-05-09T11:49:17.034Z,2.33
2023-05-09T11:51:43.949Z,2.20
2023-05-09T11:54:13.676Z,3.00
2023-05-09T11:56:41.992Z,1.90
2023-05-09T11:59:10.537Z,2.30
2023-05-09T12:01:37.669Z,2.50
2023-05-09T12:04:07.618Z,2.57
2023-05-09T12:06:34.570Z,2.10
2023-05-09T12:09:01.496Z,2.40
2023-05-09T12:11:32.396Z,2.50
2023-05-09T12:13:59.333Z,2.77
2023-05-09T12:16:26.351Z,2.67
2023-05-09T12:18:53.804Z,2.50
2023-05-09T12:21:22.213Z,3.00
2023-05-09T12:23:51.293Z,2.97
2023-05-09T12:26:22.177Z,3.30
2023-05-09T12:28:49.068Z,2.67
2023-05-09T12:31:17.545Z,2.47
2023-05-09T12:33:44.675Z,2.60
2023-05-09T12:36:13.874Z,3.00
2023-05-09T12:38:41.029Z,2.90
2023-05-09T12:41:30.853Z,3.40
2023-05-09T12:44:01.200Z,2.93
2023-05-09T12:46:28.423Z,3.80
2023-05-09T12:48:55.719Z,2.60
2023-05-09T12:51:23.277Z,3.50
2023-05-09T12:53:50.461Z,3.20
2023-05-09T12:56:23.489Z,3.40
2023-05-09T12:58:55.429Z,3.47
2023-05-09T13:01:28.577Z,4.00
2023-05-09T13:04:06.351Z,3.30
2023-05-09T13:06:34.424Z,3.33
2023-05-09T13:09:03.048Z,3.47
2023-05-09T13:11:30.624Z,3.53
2023-05-09T13:13:57.770Z,3.30
2023-05-09T13:16:24.669Z,3.33
2023-05-09T13:18:51.548Z,4.00
2023-05-09T13:21:18.400Z,2.80
2023-05-09T13:23:45.692Z,2.87
2023-05-09T13:26:12.738Z,2.67
2023-05-09T13:28:39.551Z,2.00
2023-05-09T13:31:06.928Z,2.30
2023-05-09T13:33:34.028Z,2.50
2023-05-09T13:36:01.000Z,2.60
2023-05-09T13:38:30.979Z,2.53
2023-05-09T13:40:58.231Z,2.30
2023-05-09T13:43:25.069Z,2.33
2023-05-09T13:45:51.911Z,1.83
2023-05-09T13:48:18.787Z,2.33
2023-05-09T13:50:46.729Z,2.97
2023-05-09T13:53:13.542Z,2.00
2023-05-09T13:55:40.292Z,2.00
2023-05-09T13:58:07.598Z,2.63
2023-05-09T14:00:34.516Z,2.73
2023-05-09T14:03:02.816Z,2.50
2023-05-09T14:05:31.915Z,2.47
2023-05-09T14:07:58.762Z,2.30
2023-05-09T14:10:27.091Z,3.10
2023-05-09T14:12:54.288Z,3.83
2023-05-09T14:15:21.189Z,4.23
2023-05-09T14:17:48.035Z,4.23
2023-05-09T14:20:16.199Z,4.40
2023-05-09T14:22:43.386Z,5.37
2023-05-09T14:25:10.411Z,5.17
2023-05-09T14:27:37.329Z,5.17
2023-05-09T14:30:04.889Z,5.37
2023-05-09T14:32:31.697Z,5.57
2023-05-09T14:34:58.547Z,7.30
2023-05-09T14:37:25.443Z,6.47
2023-05-09T14:39:52.200Z,7.60
2023-05-09T14:42:19.776Z,8.00
2023-05-09T14:44:47.387Z,7.30
2023-05-09T14:47:14.324Z,7.80
2023-05-09T14:49:41.445Z,7.97
2023-05-09T14:52:08.269Z,8.00
2023-05-09T14:54:35.130Z,7.97
2023-05-09T14:57:04.530Z,7.80
2023-05-09T14:59:31.403Z,7.10
2023-05-09T15:01:58.253Z,7.70
2023-05-09T15:04:28.309Z,8.03
2023-05-09T15:06:55.185Z,8.57
2023-05-09T15:09:22.548Z,8.90
2023-05-09T15:11:49.519Z,7.33
2023-05-09T15:14:17.027Z,7.57
2023-05-09T15:16:44.246Z,6.47
2023-05-09T15:19:11.431Z,7.90
2023-05-09T15:21:38.255Z,7.30
2023-05-09T15:24:05.623Z,6.90
2023-05-09T15:26:32.565Z,6.70
2023-05-09T15:28:59.461Z,7.30
2023-05-09T15:31:26.391Z,7.33
2023-05-09T15:33:53.386Z,7.20
2023-05-09T15:36:20.148Z,7.80
2023-05-09T15:38:49.529Z,7.43
2023-05-09T15:41:16.733Z,10.00
2023-05-09T15:43:43.618Z,9.70
2023-05-09T15:46:10.568Z,10.00
2023-05-09T15:48:37.452Z,10.40
2023-05-09T15:51:04.402Z,10.20
2023-05-09T15:53:31.290Z,13.00
2023-05-09T15:55:58.165Z,14.60
2023-05-09T15:58:25.742Z,13.10
2023-05-09T16:00:52.654Z,13.73
2023-05-09T16:03:19.805Z,14.47
2023-05-09T16:05:46.983Z,16.00
2023-05-09T16:08:14.340Z,17.40
2023-05-09T16:10:41.122Z,16.07
2023-05-09T16:13:08.155Z,17.70
2023-05-09T16:15:35.253Z,17.93
2023-05-09T16:18:02.109Z,16.67
2023-05-09T16:20:29.012Z,14.53
2023-05-09T16:22:55.819Z,18.90
2023-05-09T16:25:22.793Z,17.13
2023-05-09T16:27:49.611Z,15.83
2023-05-09T16:30:16.900Z,15.73
2023-05-09T16:32:44.604Z,15.30
2023-05-09T16:35:11.476Z,14.10
2023-05-09T16:37:38.456Z,13.50
2023-05-09T16:40:06.061Z,14.63
2023-05-09T16:42:32.991Z,14.77
2023-05-09T16:45:00.061Z,14.97
2023-05-09T16:47:26.908Z,29.37
2023-05-09T16:49:53.630Z,13.37
2023-05-09T16:52:20.683Z,14.70
2023-05-09T16:54:49.138Z,13.80
2023-05-09T16:57:16.138Z,13.77
2023-05-09T16:59:43.143Z,13.50
2023-05-09T17:02:09.993Z,13.50
2023-05-09T17:04:37.944Z,13.43
2023-05-09T17:07:04.810Z,13.63
2023-05-09T17:09:32.517Z,14.13
2023-05-09T17:12:00.582Z,13.70
2023-05-09T17:14:27.555Z,13.27
2023-05-09T17:16:54.471Z,15.07
2023-05-09T17:19:23.458Z,14.07
2023-05-09T17:21:50.701Z,13.10
2023-05-09T17:24:17.899Z,14.03
2023-05-09T17:26:44.726Z,14.07
2023-05-09T17:29:11.470Z,13.77
2023-05-09T17:31:38.220Z,11.73
2023-05-09T17:34:05.663Z,14.03
2023-05-09T17:36:33.562Z,12.70
2023-05-09T17:39:00.837Z,12.00
2023-05-09T17:41:27.785Z,11.90
2023-05-09T17:43:57.317Z,12.53
2023-05-09T17:46:24.770Z,12.23
2023-05-09T17:48:51.884Z,10.90
2023-05-09T17:51:18.807Z,12.33
2023-05-09T17:53:46.796Z,11.67
2023-05-09T17:56:13.684Z,12.00
2023-05-09T17:58:40.533Z,9.63
2023-05-09T18:01:07.712Z,10.50
2023-05-09T18:03:34.683Z,10.77
2023-05-09T18:06:01.845Z,10.03
2023-05-09T18:08:29.615Z,10.90
2023-05-09T18:10:57.707Z,10.50
2023-05-09T18:13:24.794Z,11.27
2023-05-09T18:15:54.048Z,11.37
2023-05-09T18:18:20.971Z,11.17
2023-05-09T18:20:47.871Z,12.10
2023-05-09T18:23:15.520Z,10.80
2023-05-09T18:25:42.332Z,10.63
2023-05-09T18:28:09.417Z,12.10
2023-05-09T18:30:36.672Z,10.93
2023-05-09T18:33:03.814Z,11.90
2023-05-09T18:35:31.615Z,11.17
2023-05-09T18:37:58.422Z,11.47
2023-05-09T18:40:26.108Z,10.73
2023-05-09T18:42:53.037Z,10.30
2023-05-09T18:45:19.825Z,10.90
2023-05-09T18:47:46.652Z,10.90
2023-05-09T18:50:13.928Z,10.67
2023-05-09T18:52:40.956Z,10.77
2023-05-09T18:55:08.232Z,11.10
2023-05-09T18:57:35.060Z,10.07
2023-05-09T19:00:02.107Z,9.93
2023-05-09T19:02:30.132Z,9.57
2023-05-09T19:04:57.190Z,9.80
2023-05-09T19:07:24.154Z,10.23
2023-05-09T19:09:51.364Z,9.10
2023-05-09T19:12:18.996Z,8.30
2023-05-09T19:14:45.774Z,7.90
2023-05-09T19:17:12.533Z,6.50
2023-05-09T19:19:39.485Z,7.00
2023-05-09T19:22:06.815Z,6.83
2023-05-09T19:24:33.612Z,7.30
2023-05-09T19:27:00.493Z,5.70
2023-05-09T19:29:27.255Z,3.70
2023-05-09T19:31:54.205Z,5.30
2023-05-09T19:34:20.956Z,5.00
2023-05-09T19:36:47.771Z,3.90
2023-05-09T19:39:14.702Z,4.63
2023-05-09T19:41:41.695Z,4.63
2023-05-09T19:44:08.511Z,4.57
2023-05-09T19:46:35.448Z,5.07
2023-05-09T19:49:02.379Z,4.60
2023-05-09T19:51:29.635Z,4.77
2023-05-09T19:53:56.455Z,4.73
2023-05-09T19:56:23.900Z,5.97
2023-05-09T19:58:50.792Z,5.00
2023-05-09T20:01:19.101Z,5.30
2023-05-09T20:03:47.021Z,5.50
2023-05-09T20:06:13.967Z,4.57
2023-05-09T20:08:40.898Z,5.93
2023-05-09T20:11:07.918Z,6.53
2023-05-09T20:13:34.765Z,4.47
2023-05-09T20:16:03.213Z,5.03
2023-05-09T20:18:33.283Z,6.23
2023-05-09T20:21:01.367Z,6.03
2023-05-09T20:23:28.631Z,4.37
2023-05-09T20:25:56.069Z,3.80
2023-05-09T20:28:23.010Z,4.10
2023-05-09T20:30:50.181Z,4.10
2023-05-09T20:33:17.066Z,4.60
2023-05-09T20:35:43.925Z,4.90
2023-05-09T20:38:11.687Z,4.10
2023-05-09T20:40:38.576Z,5.40
2023-05-09T20:43:05.534Z,6.07
2023-05-09T20:45:32.470Z,5.43
2023-05-09T20:47:59.427Z,6.33
2023-05-09T20:50:26.350Z,5.90
2023-05-09T20:52:53.046Z,5.70
2023-05-09T20:55:19.913Z,5.07
2023-05-09T20:57:46.738Z,5.00
2023-05-09T21:00:13.938Z,6.10
2023-05-09T21:02:40.952Z,6.07
2023-05-09T21:05:08.094Z,6.23
2023-05-09T21:07:34.807Z,5.23
2023-05-09T21:10:02.019Z,4.70
2023-05-09T21:12:28.796Z,4.80
2023-05-09T21:14:56.343Z,4.33
2023-05-09T21:17:23.134Z,4.10
2023-05-09T21:19:51.841Z,3.37
2023-05-09T21:22:18.643Z,2.60
2023-05-09T21:24:45.664Z,3.03
2023-05-09T21:27:12.663Z,2.57
2023-05-09T21:29:39.375Z,3.00
2023-05-09T21:32:06.304Z,1.90
2023-05-09T21:34:33.105Z,2.23
2023-05-09T21:36:59.911Z,2.20
2023-05-09T21:39:26.645Z,1.97
2023-05-09T21:41:53.390Z,2.50
2023-05-09T21:44:20.139Z,2.03
2023-05-09T21:46:47.059Z,2.57
2023-05-09T21:49:16.698Z,1.83
2023-05-09T21:51:43.647Z,2.13
2023-05-09T21:54:11.115Z,2.80
2023-05-09T21:56:38.098Z,2.07
2023-05-09T21:59:05.236Z,2.20
2023-05-09T22:01:32.121Z,2.00
2023-05-09T22:03:59.186Z,2.10
2023-05-09T22:06:26.047Z,2.07
2023-05-09T22:08:52.880Z,1.70
2023-05-09T22:11:20.066Z,2.20
2023-05-09T22:13:46.856Z,1.97
2023-05-09T22:16:13.683Z,1.87
2023-05-09T22:18:40.549Z,2.00
2023-05-09T22:21:07.292Z,2.20
2023-05-09T22:23:34.114Z,1.70
2023-05-09T22:26:00.928Z,1.93
2023-05-09T22:28:27.684Z,1.83
2023-05-09T22:30:54.600Z,2.47
2023-05-09T22:33:21.370Z,1.80
2023-05-09T22:35:48.116Z,1.80
2023-05-09T22:38:14.875Z,1.90
2023-05-09T22:40:41.812Z,2.00
2023-05-09T22:43:10.487Z,1.60
2023-05-09T22:45:37.704Z,1.80
2023-05-09T22:48:05.065Z,1.93
2023-05-09T22:50:31.979Z,1.73
2023-05-09T22:52:58.773Z,1.80
2023-05-09T22:55:25.561Z,3.53
2023-05-09T22:57:52.354Z,1.90
2023-05-09T23:00:19.451Z,1.47
2023-05-09T23:02:46.362Z,2.03
2023-05-09T23:05:13.409Z,1.90
2023-05-09T23:07:40.467Z,2.00
2023-05-09T23:10:07.736Z,1.90
2023-05-09T23:12:34.498Z,1.97
2023-05-09T23:15:01.340Z,1.60
2023-05-09T23:17:28.176Z,1.73
2023-05-09T23:19:55.066Z,2.27
2023-05-09T23:22:21.826Z,1.77
2023-05-09T23:24:48.593Z,1.50
2023-05-09T23:27:15.436Z,1.13
2023-05-09T23:29:42.278Z,1.10
2023-05-09T23:32:09.504Z,1.00
2023-05-09T23:34:36.694Z,1.30
2023-05-09T23:37:04.384Z,1.03
2023-05-09T23:39:31.992Z,1.40
2023-05-09T23:41:59.081Z,1.23
2023-05-09T23:44:26.015Z,1.20
2023-05-09T23:46:52.871Z,1.30
2023-05-09T23:49:19.747Z,1.13
2023-05-09T23:51:46.524Z,1.30
2023-05-09T23:54:13.288Z,1.60
2023-05-09T23:56:40.727Z,1.30
2023-05-09T23:59:07.549Z,1.60
